Whitesboro, NY (13492)

3:33 PM EDT on March 27, 2015 (GMT -0400)
Harts Hill | | Change Station
CLOSE
Current Station
Personal Weather Station
Location: Whitesboro, NY
Elevation: 682 ft
Nearby Weather Stations

Elev 682 ft 43.11 °N, 75.32 °W | Updated 40 seconds ago

Overcast
Overcast
36.3 °F
Feels Like 28 °F
N
12.1
Wind Variable Wind from NNW
Gusts 12.1 mph

Today
High -- | Low -- °F
--% Chance of Precip.
Yesterday
High -- | Low -- °F
Precip. -- in
6:52 AM 7:21 PM
First Quarter, 55% visible
Pressure 29.80 in
Visibility 8.0 miles
Clouds Few 2200 ft
Mostly Cloudy 4100 ft
Overcast 6000 ft
Windchill 28 °F
Dew Point 30 °F
Humidity 76%
Rainfall 0.02 in
Snow Depth Not available.
UV 2 out of 12
Pollen .60 out of 12
Air Quality Not available.
Flu Activity Not available.
METAR KRME 271853Z 29015KT 8SM -SN FEW022 BKN041 OVC060 02/M01 A2979 RMK AO2 RAB38E46SNB04E20B46 SLP091 P0000 T00171011

More Conditions Fewer Conditions

Pressure 29.80 in
Visibility 8.0 miles
Clouds Few 2200 ft
Mostly Cloudy 4100 ft
Overcast 6000 ft
Windchill 28 °F
Dew Point 30 °F
Humidity 76%
Rainfall 0.02 in
Snow Depth Not available.
UV 2 out of 12
Pollen .60 out of 12
Air Quality Not available.
Flu Activity Not available.
METAR KRME 271853Z 29015KT 8SM -SN FEW022 BKN041 OVC060 02/M01 A2979 RMK AO2 RAB38E46SNB04E20B46 SLP091 P0000 T00171011

More Conditions Fewer Conditions

10-Day Weather Forecast

Almanac

Astronomy

Mar. 27, 2015 Rise Set
Actual Time
Civil Twilight
Nautical Twilight
Astronomical Twilight
Moon
Length of Visible Light
Length of Day
Tomorrow will be .
, % of the Moon is Illuminated

Today's Extremes

State Highs State Lows

Community

WunderPhotos

Upload Photos

1,808,797 photos uploaded!

WunderBlogs® & News

Nearby

Air Quality

  Air Quality AQ Index Pollutant
Not available.

Snow Depth

Station Depth Elevation

Earthquake Activity

City Distance Mag. Time & Date
Minimum magnitude displayed is 2.5.

Coastal Water Temperatures

Place Temperature

Stations

Nearby Weather Stations

Station Location Temp. Windchill Dew Point Humidity Wind Precip. Elev Updated Type